sensor_id;sensor_type;location;lat;lon;timestamp;P1;durP1;ratioP1;P2;durP2;ratioP2
19535;SDS011;9913;51.168;4.124;2023-04-01T00:01:09;20.80;;;10.13;;
19535;SDS011;9913;51.168;4.124;2023-04-01T00:03:40;19.90;;;9.63;;
19535;SDS011;9913;51.168;4.124;2023-04-01T00:06:10;19.60;;;9.13;;
19535;SDS011;9913;51.168;4.124;2023-04-01T00:08:41;20.37;;;10.60;;
19535;SDS011;9913;51.168;4.124;2023-04-01T00:11:09;25.83;;;9.77;;
19535;SDS011;9913;51.168;4.124;2023-04-01T00:13:37;19.23;;;10.03;;
19535;SDS011;9913;51.168;4.124;2023-04-01T00:16:06;20.30;;;10.47;;
19535;SDS011;9913;51.168;4.124;2023-04-01T00:18:46;21.83;;;10.60;;
19535;SDS011;9913;51.168;4.124;2023-04-01T00:21:16;19.03;;;9.53;;
19535;SDS011;9913;51.168;4.124;2023-04-01T00:23:45;21.83;;;11.03;;
19535;SDS011;9913;51.168;4.124;2023-04-01T00:26:13;19.67;;;11.00;;
19535;SDS011;9913;51.168;4.124;2023-04-01T00:28:45;25.80;;;12.03;;
19535;SDS011;9913;51.168;4.124;2023-04-01T00:31:14;26.63;;;12.30;;
19535;SDS011;9913;51.168;4.124;2023-04-01T00:33:42;33.07;;;12.87;;
19535;SDS011;9913;51.168;4.124;2023-04-01T00:36:11;23.27;;;11.90;;
19535;SDS011;9913;51.168;4.124;2023-04-01T00:38:42;23.63;;;14.13;;
19535;SDS011;9913;51.168;4.124;2023-04-01T00:41:12;29.30;;;14.30;;
19535;SDS011;9913;51.168;4.124;2023-04-01T00:43:44;21.50;;;12.33;;
19535;SDS011;9913;51.168;4.124;2023-04-01T00:46:14;18.50;;;11.00;;
19535;SDS011;9913;51.168;4.124;2023-04-01T00:48:43;17.33;;;10.37;;
19535;SDS011;9913;51.168;4.124;2023-04-01T00:51:15;21.07;;;10.33;;
19535;SDS011;9913;51.168;4.124;2023-04-01T00:53:49;16.80;;;11.23;;
19535;SDS011;9913;51.168;4.124;2023-04-01T00:56:21;20.60;;;11.30;;
19535;SDS011;9913;51.168;4.124;2023-04-01T00:58:54;22.13;;;12.00;;
19535;SDS011;9913;51.168;4.124;2023-04-01T01:01:26;25.90;;;14.37;;
19535;SDS011;9913;51.168;4.124;2023-04-01T01:03:57;23.37;;;13.50;;
19535;SDS011;9913;51.168;4.124;2023-04-01T01:06:30;27.20;;;13.67;;
19535;SDS011;9913;51.168;4.124;2023-04-01T01:09:14;29.07;;;15.70;;
19535;SDS011;9913;51.168;4.124;2023-04-01T01:11:54;27.43;;;13.50;;
19535;SDS011;9913;51.168;4.124;2023-04-01T01:14:33;24.47;;;13.63;;
19535;SDS011;9913;51.168;4.124;2023-04-01T01:17:12;32.90;;;15.83;;
19535;SDS011;9913;51.168;4.124;2023-04-01T01:19:53;32.73;;;16.53;;
19535;SDS011;9913;51.168;4.124;2023-04-01T01:22:52;28.77;;;15.97;;
19535;SDS011;9913;51.168;4.124;2023-04-01T01:25:38;29.17;;;14.43;;
19535;SDS011;9913;51.168;4.124;2023-04-01T01:28:17;37.63;;;17.10;;
19535;SDS011;9913;51.168;4.124;2023-04-01T01:30:59;27.37;;;15.07;;
19535;SDS011;9913;51.168;4.124;2023-04-01T01:33:38;25.67;;;13.93;;
19535;SDS011;9913;51.168;4.124;2023-04-01T01:36:16;31.77;;;15.60;;
19535;SDS011;9913;51.168;4.124;2023-04-01T01:38:48;29.80;;;16.13;;
19535;SDS011;9913;51.168;4.124;2023-04-01T01:41:18;29.07;;;13.53;;
19535;SDS011;9913;51.168;4.124;2023-04-01T01:43:49;24.80;;;13.63;;
19535;SDS011;9913;51.168;4.124;2023-04-01T01:46:21;22.93;;;13.60;;
19535;SDS011;9913;51.168;4.124;2023-04-01T01:48:52;23.13;;;13.57;;
19535;SDS011;9913;51.168;4.124;2023-04-01T01:51:23;24.27;;;14.10;;
19535;SDS011;9913;51.168;4.124;2023-04-01T01:53:54;22.67;;;14.40;;
19535;SDS011;9913;51.168;4.124;2023-04-01T01:56:25;23.53;;;14.30;;
19535;SDS011;9913;51.168;4.124;2023-04-01T01:58:56;26.13;;;13.50;;
19535;SDS011;9913;51.168;4.124;2023-04-01T02:01:28;22.83;;;13.03;;
19535;SDS011;9913;51.168;4.124;2023-04-01T02:04:08;19.23;;;12.50;;
19535;SDS011;9913;51.168;4.124;2023-04-01T02:06:41;22.27;;;11.37;;
19535;SDS011;9913;51.168;4.124;2023-04-01T02:09:14;23.93;;;12.00;;
19535;SDS011;9913;51.168;4.124;2023-04-01T02:11:45;15.87;;;9.57;;
19535;SDS011;9913;51.168;4.124;2023-04-01T02:14:16;24.90;;;12.37;;
19535;SDS011;9913;51.168;4.124;2023-04-01T02:16:49;21.97;;;11.77;;
19535;SDS011;9913;51.168;4.124;2023-04-01T02:19:21;22.80;;;12.50;;
19535;SDS011;9913;51.168;4.124;2023-04-01T02:21:55;22.67;;;13.80;;
19535;SDS011;9913;51.168;4.124;2023-04-01T02:24:27;25.40;;;14.27;;
19535;SDS011;9913;51.168;4.124;2023-04-01T02:26:58;22.93;;;13.20;;
19535;SDS011;9913;51.168;4.124;2023-04-01T02:29:29;15.17;;;9.87;;
19535;SDS011;9913;51.168;4.124;2023-04-01T02:31:57;17.37;;;10.00;;
19535;SDS011;9913;51.168;4.124;2023-04-01T02:34:27;15.53;;;8.73;;
19535;SDS011;9913;51.168;4.124;2023-04-01T02:36:57;13.63;;;8.37;;
19535;SDS011;9913;51.168;4.124;2023-04-01T02:39:25;13.93;;;7.63;;
19535;SDS011;9913;51.168;4.124;2023-04-01T02:41:54;12.93;;;7.80;;
19535;SDS011;9913;51.168;4.124;2023-04-01T02:44:22;11.03;;;7.13;;
19535;SDS011;9913;51.168;4.124;2023-04-01T02:46:50;13.43;;;7.40;;
19535;SDS011;9913;51.168;4.124;2023-04-01T02:49:19;13.83;;;7.60;;
19535;SDS011;9913;51.168;4.124;2023-04-01T02:51:47;13.40;;;7.50;;
19535;SDS011;9913;51.168;4.124;2023-04-01T02:54:17;13.13;;;8.70;;
19535;SDS011;9913;51.168;4.124;2023-04-01T02:56:46;14.00;;;7.17;;
19535;SDS011;9913;51.168;4.124;2023-04-01T02:59:14;14.00;;;8.20;;
19535;SDS011;9913;51.168;4.124;2023-04-01T03:01:42;12.13;;;6.70;;
19535;SDS011;9913;51.168;4.124;2023-04-01T03:04:11;13.90;;;6.57;;
19535;SDS011;9913;51.168;4.124;2023-04-01T03:06:39;14.50;;;7.60;;
19535;SDS011;9913;51.168;4.124;2023-04-01T03:09:07;13.60;;;7.20;;
19535;SDS011;9913;51.168;4.124;2023-04-01T03:11:37;12.40;;;6.70;;
19535;SDS011;9913;51.168;4.124;2023-04-01T03:14:05;11.33;;;6.07;;
19535;SDS011;9913;51.168;4.124;2023-04-01T03:16:33;17.33;;;7.47;;
19535;SDS011;9913;51.168;4.124;2023-04-01T03:19:02;10.57;;;6.13;;
19535;SDS011;9913;51.168;4.124;2023-04-01T03:21:30;13.20;;;6.83;;
19535;SDS011;9913;51.168;4.124;2023-04-01T03:24:00;13.93;;;7.23;;
19535;SDS011;9913;51.168;4.124;2023-04-01T03:26:28;13.53;;;7.70;;
19535;SDS011;9913;51.168;4.124;2023-04-01T03:28:59;15.97;;;8.90;;
19535;SDS011;9913;51.168;4.124;2023-04-01T03:31:27;16.73;;;8.30;;
19535;SDS011;9913;51.168;4.124;2023-04-01T03:33:56;16.70;;;9.73;;
19535;SDS011;9913;51.168;4.124;2023-04-01T03:36:25;16.97;;;9.70;;
19535;SDS011;9913;51.168;4.124;2023-04-01T03:38:53;16.60;;;9.93;;
19535;SDS011;9913;51.168;4.124;2023-04-01T03:41:31;13.67;;;9.20;;
19535;SDS011;9913;51.168;4.124;2023-04-01T03:44:01;19.10;;;9.57;;
19535;SDS011;9913;51.168;4.124;2023-04-01T03:46:30;14.77;;;9.37;;
19535;SDS011;9913;51.168;4.124;2023-04-01T03:48:58;19.43;;;10.57;;
19535;SDS011;9913;51.168;4.124;2023-04-01T03:51:26;16.40;;;9.67;;
19535;SDS011;9913;51.168;4.124;2023-04-01T03:53:55;18.30;;;10.03;;
19535;SDS011;9913;51.168;4.124;2023-04-01T03:56:23;18.33;;;10.93;;
19535;SDS011;9913;51.168;4.124;2023-04-01T03:58:51;15.37;;;9.93;;
19535;SDS011;9913;51.168;4.124;2023-04-01T04:01:21;16.37;;;10.63;;
19535;SDS011;9913;51.168;4.124;2023-04-01T04:03:53;17.67;;;10.63;;
19535;SDS011;9913;51.168;4.124;2023-04-01T04:06:23;16.20;;;10.10;;
19535;SDS011;9913;51.168;4.124;2023-04-01T04:08:53;15.83;;;9.67;;
19535;SDS011;9913;51.168;4.124;2023-04-01T04:11:22;19.03;;;9.60;;
19535;SDS011;9913;51.168;4.124;2023-04-01T04:13:51;14.03;;;9.30;;
19535;SDS011;9913;51.168;4.124;2023-04-01T04:16:23;15.03;;;8.83;;
19535;SDS011;9913;51.168;4.124;2023-04-01T04:18:56;14.80;;;9.37;;
19535;SDS011;9913;51.168;4.124;2023-04-01T04:21:25;15.27;;;9.77;;
19535;SDS011;9913;51.168;4.124;2023-04-01T04:23:53;15.07;;;9.97;;
19535;SDS011;9913;51.168;4.124;2023-04-01T04:26:21;15.23;;;10.00;;
19535;SDS011;9913;51.168;4.124;2023-04-01T04:28:58;15.63;;;10.17;;
19535;SDS011;9913;51.168;4.124;2023-04-01T04:31:28;12.20;;;7.83;;
19535;SDS011;9913;51.168;4.124;2023-04-01T04:33:59;13.60;;;7.83;;
19535;SDS011;9913;51.168;4.124;2023-04-01T04:36:34;15.87;;;9.03;;
19535;SDS011;9913;51.168;4.124;2023-04-01T04:39:03;13.77;;;8.97;;
19535;SDS011;9913;51.168;4.124;2023-04-01T04:41:33;12.43;;;7.20;;
19535;SDS011;9913;51.168;4.124;2023-04-01T04:44:04;15.07;;;8.20;;
19535;SDS011;9913;51.168;4.124;2023-04-01T04:46:34;14.67;;;9.07;;
19535;SDS011;9913;51.168;4.124;2023-04-01T04:49:12;21.73;;;10.10;;
19535;SDS011;9913;51.168;4.124;2023-04-01T04:51:41;14.43;;;9.53;;
19535;SDS011;9913;51.168;4.124;2023-04-01T04:54:10;16.17;;;9.30;;
19535;SDS011;9913;51.168;4.124;2023-04-01T04:56:51;17.97;;;9.80;;
19535;SDS011;9913;51.168;4.124;2023-04-01T04:59:21;20.10;;;11.60;;
19535;SDS011;9913;51.168;4.124;2023-04-01T05:01:59;20.53;;;11.07;;
19535;SDS011;9913;51.168;4.124;2023-04-01T05:04:28;18.00;;;10.37;;
19535;SDS011;9913;51.168;4.124;2023-04-01T05:06:56;15.60;;;9.77;;
19535;SDS011;9913;51.168;4.124;2023-04-01T05:09:25;19.77;;;10.87;;
19535;SDS011;9913;51.168;4.124;2023-04-01T05:11:53;15.23;;;9.23;;
19535;SDS011;9913;51.168;4.124;2023-04-01T05:14:23;13.97;;;8.90;;
19535;SDS011;9913;51.168;4.124;2023-04-01T05:16:59;14.03;;;8.70;;
19535;SDS011;9913;51.168;4.124;2023-04-01T05:19:28;15.47;;;7.93;;
19535;SDS011;9913;51.168;4.124;2023-04-01T05:21:56;12.90;;;7.27;;
19535;SDS011;9913;51.168;4.124;2023-04-01T05:24:25;9.87;;;6.27;;
19535;SDS011;9913;51.168;4.124;2023-04-01T05:26:53;11.83;;;6.50;;
19535;SDS011;9913;51.168;4.124;2023-04-01T05:29:23;10.03;;;5.63;;
19535;SDS011;9913;51.168;4.124;2023-04-01T05:31:59;10.73;;;5.53;;
19535;SDS011;9913;51.168;4.124;2023-04-01T05:34:28;13.13;;;6.20;;
19535;SDS011;9913;51.168;4.124;2023-04-01T05:36:56;7.63;;;5.17;;
19535;SDS011;9913;51.168;4.124;2023-04-01T05:39:24;8.07;;;4.80;;
19535;SDS011;9913;51.168;4.124;2023-04-01T05:41:53;8.20;;;4.47;;
19535;SDS011;9913;51.168;4.124;2023-04-01T05:44:21;7.00;;;4.70;;
19535;SDS011;9913;51.168;4.124;2023-04-01T05:47:03;8.07;;;4.67;;
19535;SDS011;9913;51.168;4.124;2023-04-01T05:49:32;7.33;;;4.50;;
19535;SDS011;9913;51.168;4.124;2023-04-01T05:52:02;6.77;;;4.00;;
19535;SDS011;9913;51.168;4.124;2023-04-01T05:54:33;8.93;;;5.37;;
19535;SDS011;9913;51.168;4.124;2023-04-01T05:57:02;9.70;;;4.97;;
19535;SDS011;9913;51.168;4.124;2023-04-01T05:59:31;7.87;;;5.07;;
19535;SDS011;9913;51.168;4.124;2023-04-01T06:02:03;9.33;;;5.30;;
19535;SDS011;9913;51.168;4.124;2023-04-01T06:04:32;9.83;;;5.97;;
19535;SDS011;9913;51.168;4.124;2023-04-01T06:07:10;9.27;;;5.07;;
19535;SDS011;9913;51.168;4.124;2023-04-01T06:09:39;8.47;;;4.83;;
19535;SDS011;9913;51.168;4.124;2023-04-01T06:12:16;6.27;;;4.47;;
19535;SDS011;9913;51.168;4.124;2023-04-01T06:15:05;7.53;;;4.87;;
19535;SDS011;9913;51.168;4.124;2023-04-01T06:17:46;10.33;;;5.27;;
19535;SDS011;9913;51.168;4.124;2023-04-01T06:20:26;7.00;;;4.43;;
19535;SDS011;9913;51.168;4.124;2023-04-01T06:23:08;9.50;;;4.87;;
19535;SDS011;9913;51.168;4.124;2023-04-01T06:25:48;6.87;;;4.70;;
19535;SDS011;9913;51.168;4.124;2023-04-01T06:28:43;7.00;;;3.80;;
19535;SDS011;9913;51.168;4.124;2023-04-01T06:31:24;6.93;;;4.10;;
19535;SDS011;9913;51.168;4.124;2023-04-01T06:34:11;9.77;;;4.23;;
19535;SDS011;9913;51.168;4.124;2023-04-01T06:37:05;4.73;;;3.23;;
19535;SDS011;9913;51.168;4.124;2023-04-01T06:39:51;7.03;;;4.20;;
19535;SDS011;9913;51.168;4.124;2023-04-01T06:42:45;7.37;;;3.97;;
19535;SDS011;9913;51.168;4.124;2023-04-01T06:45:44;7.47;;;4.30;;
19535;SDS011;9913;51.168;4.124;2023-04-01T06:48:40;5.97;;;3.60;;
19535;SDS011;9913;51.168;4.124;2023-04-01T06:51:38;5.30;;;3.73;;
19535;SDS011;9913;51.168;4.124;2023-04-01T06:54:34;4.40;;;3.00;;
19535;SDS011;9913;51.168;4.124;2023-04-01T06:57:09;4.20;;;3.23;;
19535;SDS011;9913;51.168;4.124;2023-04-01T06:59:48;6.23;;;3.70;;
19535;SDS011;9913;51.168;4.124;2023-04-01T07:02:20;5.17;;;3.00;;
19535;SDS011;9913;51.168;4.124;2023-04-01T07:04:53;4.23;;;3.10;;
19535;SDS011;9913;51.168;4.124;2023-04-01T07:07:29;5.87;;;3.50;;
19535;SDS011;9913;51.168;4.124;2023-04-01T07:10:09;7.33;;;3.77;;
19535;SDS011;9913;51.168;4.124;2023-04-01T07:13:00;7.40;;;3.80;;
19535;SDS011;9913;51.168;4.124;2023-04-01T07:16:08;6.13;;;3.70;;
19535;SDS011;9913;51.168;4.124;2023-04-01T07:18:43;6.10;;;3.93;;
19535;SDS011;9913;51.168;4.124;2023-04-01T07:21:23;7.33;;;3.90;;
19535;SDS011;9913;51.168;4.124;2023-04-01T07:24:04;6.17;;;4.03;;
19535;SDS011;9913;51.168;4.124;2023-04-01T07:26:55;5.43;;;3.97;;
19535;SDS011;9913;51.168;4.124;2023-04-01T07:29:27;4.97;;;3.73;;
19535;SDS011;9913;51.168;4.124;2023-04-01T07:32:09;5.33;;;4.10;;
19535;SDS011;9913;51.168;4.124;2023-04-01T07:34:55;5.50;;;4.10;;
19535;SDS011;9913;51.168;4.124;2023-04-01T07:37:42;7.97;;;3.90;;
19535;SDS011;9913;51.168;4.124;2023-04-01T07:40:23;6.90;;;3.63;;
19535;SDS011;9913;51.168;4.124;2023-04-01T07:43:05;8.37;;;3.93;;
19535;SDS011;9913;51.168;4.124;2023-04-01T07:45:53;5.10;;;3.20;;
19535;SDS011;9913;51.168;4.124;2023-04-01T07:48:32;5.70;;;3.67;;
19535;SDS011;9913;51.168;4.124;2023-04-01T07:51:08;4.57;;;3.60;;
19535;SDS011;9913;51.168;4.124;2023-04-01T07:53:43;6.27;;;3.60;;
19535;SDS011;9913;51.168;4.124;2023-04-01T07:56:21;5.87;;;3.27;;
19535;SDS011;9913;51.168;4.124;2023-04-01T07:58:56;3.83;;;2.83;;
19535;SDS011;9913;51.168;4.124;2023-04-01T08:02:06;5.63;;;3.10;;
19535;SDS011;9913;51.168;4.124;2023-04-01T08:04:48;5.67;;;2.70;;
19535;SDS011;9913;51.168;4.124;2023-04-01T08:07:27;2.67;;;2.13;;
19535;SDS011;9913;51.168;4.124;2023-04-01T08:10:27;4.57;;;2.73;;
19535;SDS011;9913;51.168;4.124;2023-04-01T08:13:24;5.03;;;2.20;;
19535;SDS011;9913;51.168;4.124;2023-04-01T08:16:21;2.13;;;1.93;;
19535;SDS011;9913;51.168;4.124;2023-04-01T08:19:01;2.80;;;2.20;;
19535;SDS011;9913;51.168;4.124;2023-04-01T08:21:39;2.60;;;2.27;;
19535;SDS011;9913;51.168;4.124;2023-04-01T08:24:13;4.63;;;2.90;;
19535;SDS011;9913;51.168;4.124;2023-04-01T08:26:49;2.57;;;1.90;;
19535;SDS011;9913;51.168;4.124;2023-04-01T08:29:23;3.43;;;2.37;;
19535;SDS011;9913;51.168;4.124;2023-04-01T08:32:03;2.93;;;2.13;;
19535;SDS011;9913;51.168;4.124;2023-04-01T08:34:38;3.30;;;2.50;;
19535;SDS011;9913;51.168;4.124;2023-04-01T08:37:19;3.93;;;2.30;;
19535;SDS011;9913;51.168;4.124;2023-04-01T08:39:55;2.63;;;2.10;;
19535;SDS011;9913;51.168;4.124;2023-04-01T08:45:29;2.40;;;2.00;;
19535;SDS011;9913;51.168;4.124;2023-04-01T08:54:30;1.53;;;1.00;;
19535;SDS011;9913;51.168;4.124;2023-04-01T08:57:19;2.17;;;1.20;;
19535;SDS011;9913;51.168;4.124;2023-04-01T09:00:21;1.90;;;1.10;;
19535;SDS011;9913;51.168;4.124;2023-04-01T09:06:31;2.13;;;1.10;;
19535;SDS011;9913;51.168;4.124;2023-04-01T09:12:25;2.43;;;1.50;;
19535;SDS011;9913;51.168;4.124;2023-04-01T09:18:29;2.80;;;1.60;;
19535;SDS011;9913;51.168;4.124;2023-04-01T09:21:19;4.53;;;1.83;;
19535;SDS011;9913;51.168;4.124;2023-04-01T09:27:03;3.63;;;1.80;;
19535;SDS011;9913;51.168;4.124;2023-04-01T09:29:50;2.60;;;1.63;;
19535;SDS011;9913;51.168;4.124;2023-04-01T09:32:40;4.33;;;1.80;;
19535;SDS011;9913;51.168;4.124;2023-04-01T09:35:22;2.20;;;1.60;;
19535;SDS011;9913;51.168;4.124;2023-04-01T09:38:04;3.07;;;1.60;;
19535;SDS011;9913;51.168;4.124;2023-04-01T09:40:49;1.87;;;1.30;;
19535;SDS011;9913;51.168;4.124;2023-04-01T09:43:39;3.07;;;1.63;;
19535;SDS011;9913;51.168;4.124;2023-04-01T09:46:25;3.73;;;1.87;;
19535;SDS011;9913;51.168;4.124;2023-04-01T09:52:16;2.77;;;1.50;;
19535;SDS011;9913;51.168;4.124;2023-04-01T09:54:59;3.17;;;1.60;;
19535;SDS011;9913;51.168;4.124;2023-04-01T09:57:50;4.90;;;1.70;;
19535;SDS011;9913;51.168;4.124;2023-04-01T10:00:55;2.93;;;1.50;;
19535;SDS011;9913;51.168;4.124;2023-04-01T10:04:05;3.13;;;1.20;;
19535;SDS011;9913;51.168;4.124;2023-04-01T10:06:57;2.57;;;1.20;;
19535;SDS011;9913;51.168;4.124;2023-04-01T10:09:47;2.00;;;1.60;;
19535;SDS011;9913;51.168;4.124;2023-04-01T10:12:57;2.03;;;1.60;;
19535;SDS011;9913;51.168;4.124;2023-04-01T10:25:29;2.60;;;1.90;;
19535;SDS011;9913;51.168;4.124;2023-04-01T10:34:41;4.57;;;2.03;;
19535;SDS011;9913;51.168;4.124;2023-04-01T10:40:57;4.90;;;2.37;;
19535;SDS011;9913;51.168;4.124;2023-04-01T10:44:07;5.43;;;2.13;;
19535;SDS011;9913;51.168;4.124;2023-04-01T10:47:08;3.60;;;2.00;;
19535;SDS011;9913;51.168;4.124;2023-04-01T10:50:05;2.57;;;1.67;;
19535;SDS011;9913;51.168;4.124;2023-04-01T10:53:27;4.40;;;2.07;;
19535;SDS011;9913;51.168;4.124;2023-04-01T11:03:09;2.47;;;1.90;;
19535;SDS011;9913;51.168;4.124;2023-04-01T11:09:40;4.17;;;2.33;;
19535;SDS011;9913;51.168;4.124;2023-04-01T11:12:44;2.80;;;1.90;;
19535;SDS011;9913;51.168;4.124;2023-04-01T11:15:44;2.77;;;1.97;;
19535;SDS011;9913;51.168;4.124;2023-04-01T11:25:04;3.17;;;1.70;;
19535;SDS011;9913;51.168;4.124;2023-04-01T11:28:28;3.77;;;2.27;;
19535;SDS011;9913;51.168;4.124;2023-04-01T11:31:29;4.13;;;2.00;;
19535;SDS011;9913;51.168;4.124;2023-04-01T11:34:13;2.80;;;1.77;;
19535;SDS011;9913;51.168;4.124;2023-04-01T11:36:54;2.23;;;1.70;;
19535;SDS011;9913;51.168;4.124;2023-04-01T11:39:33;5.70;;;1.83;;
19535;SDS011;9913;51.168;4.124;2023-04-01T11:42:30;1.73;;;1.33;;
19535;SDS011;9913;51.168;4.124;2023-04-01T11:45:25;2.50;;;1.07;;
19535;SDS011;9913;51.168;4.124;2023-04-01T11:48:11;2.33;;;1.10;;
19535;SDS011;9913;51.168;4.124;2023-04-01T11:50:53;3.67;;;1.73;;
19535;SDS011;9913;51.168;4.124;2023-04-01T11:53:36;1.77;;;1.20;;
19535;SDS011;9913;51.168;4.124;2023-04-01T11:56:14;1.63;;;1.10;;
19535;SDS011;9913;51.168;4.124;2023-04-01T11:58:58;3.27;;;1.30;;
19535;SDS011;9913;51.168;4.124;2023-04-01T12:01:44;2.93;;;1.43;;
19535;SDS011;9913;51.168;4.124;2023-04-01T12:07:31;2.77;;;1.67;;
19535;SDS011;9913;51.168;4.124;2023-04-01T12:10:15;1.83;;;1.50;;
19535;SDS011;9913;51.168;4.124;2023-04-01T12:12:51;2.83;;;1.60;;
19535;SDS011;9913;51.168;4.124;2023-04-01T12:15:29;3.13;;;1.83;;
19535;SDS011;9913;51.168;4.124;2023-04-01T12:18:05;2.83;;;1.50;;
19535;SDS011;9913;51.168;4.124;2023-04-01T12:20:47;1.90;;;1.20;;
19535;SDS011;9913;51.168;4.124;2023-04-01T12:23:27;2.40;;;1.50;;
19535;SDS011;9913;51.168;4.124;2023-04-01T12:26:08;2.07;;;1.47;;
19535;SDS011;9913;51.168;4.124;2023-04-01T12:28:51;2.67;;;1.40;;
19535;SDS011;9913;51.168;4.124;2023-04-01T12:31:42;2.43;;;1.20;;
19535;SDS011;9913;51.168;4.124;2023-04-01T12:34:27;3.70;;;1.53;;
19535;SDS011;9913;51.168;4.124;2023-04-01T12:37:04;2.40;;;1.10;;
19535;SDS011;9913;51.168;4.124;2023-04-01T12:40:05;2.10;;;1.17;;
19535;SDS011;9913;51.168;4.124;2023-04-01T12:42:49;2.13;;;1.30;;
19535;SDS011;9913;51.168;4.124;2023-04-01T12:45:35;1.80;;;1.20;;
19535;SDS011;9913;51.168;4.124;2023-04-01T12:51:27;3.23;;;1.57;;
19535;SDS011;9913;51.168;4.124;2023-04-01T12:54:18;4.30;;;1.93;;
19535;SDS011;9913;51.168;4.124;2023-04-01T12:57:10;2.57;;;1.53;;
19535;SDS011;9913;51.168;4.124;2023-04-01T13:00:10;1.90;;;1.40;;
19535;SDS011;9913;51.168;4.124;2023-04-01T13:02:50;2.80;;;1.80;;
19535;SDS011;9913;51.168;4.124;2023-04-01T13:05:34;2.87;;;1.67;;
19535;SDS011;9913;51.168;4.124;2023-04-01T13:08:31;3.00;;;1.50;;
19535;SDS011;9913;51.168;4.124;2023-04-01T13:11:08;2.83;;;1.33;;
19535;SDS011;9913;51.168;4.124;2023-04-01T13:16:57;3.23;;;2.23;;
19535;SDS011;9913;51.168;4.124;2023-04-01T13:19:31;2.83;;;1.80;;
19535;SDS011;9913;51.168;4.124;2023-04-01T13:22:05;4.13;;;1.53;;
19535;SDS011;9913;51.168;4.124;2023-04-01T13:24:44;2.30;;;1.30;;
19535;SDS011;9913;51.168;4.124;2023-04-01T13:27:20;2.63;;;0.80;;
19535;SDS011;9913;51.168;4.124;2023-04-01T13:30:01;1.43;;;0.80;;
19535;SDS011;9913;51.168;4.124;2023-04-01T13:32:41;3.97;;;1.10;;
19535;SDS011;9913;51.168;4.124;2023-04-01T13:35:17;1.67;;;1.00;;
19535;SDS011;9913;51.168;4.124;2023-04-01T13:37:52;1.50;;;1.00;;
19535;SDS011;9913;51.168;4.124;2023-04-01T13:40:33;3.87;;;1.57;;
19535;SDS011;9913;51.168;4.124;2023-04-01T13:43:19;3.77;;;2.07;;
19535;SDS011;9913;51.168;4.124;2023-04-01T13:46:05;3.43;;;1.80;;
19535;SDS011;9913;51.168;4.124;2023-04-01T13:48:56;4.70;;;2.00;;
19535;SDS011;9913;51.168;4.124;2023-04-01T13:51:59;3.53;;;2.03;;
19535;SDS011;9913;51.168;4.124;2023-04-01T13:54:43;4.53;;;1.90;;
19535;SDS011;9913;51.168;4.124;2023-04-01T13:57:34;3.30;;;1.40;;
19535;SDS011;9913;51.168;4.124;2023-04-01T14:00:17;5.30;;;1.87;;
19535;SDS011;9913;51.168;4.124;2023-04-01T14:03:12;4.37;;;1.17;;
19535;SDS011;9913;51.168;4.124;2023-04-01T14:11:46;1.97;;;1.20;;
19535;SDS011;9913;51.168;4.124;2023-04-01T14:14:22;4.70;;;1.13;;
19535;SDS011;9913;51.168;4.124;2023-04-01T14:17:06;4.47;;;1.10;;
19535;SDS011;9913;51.168;4.124;2023-04-01T14:19:49;4.17;;;1.20;;
19535;SDS011;9913;51.168;4.124;2023-04-01T14:22:33;5.73;;;1.70;;
19535;SDS011;9913;51.168;4.124;2023-04-01T14:25:21;2.67;;;1.20;;
19535;SDS011;9913;51.168;4.124;2023-04-01T14:28:04;4.53;;;1.20;;
19535;SDS011;9913;51.168;4.124;2023-04-01T14:30:50;3.10;;;1.07;;
19535;SDS011;9913;51.168;4.124;2023-04-01T14:33:30;3.47;;;1.33;;
19535;SDS011;9913;51.168;4.124;2023-04-01T14:36:17;3.70;;;1.10;;
19535;SDS011;9913;51.168;4.124;2023-04-01T14:39:08;5.53;;;1.30;;
19535;SDS011;9913;51.168;4.124;2023-04-01T14:41:48;3.20;;;1.27;;
19535;SDS011;9913;51.168;4.124;2023-04-01T14:47:32;1.33;;;1.00;;
19535;SDS011;9913;51.168;4.124;2023-04-01T14:50:12;1.53;;;0.90;;
19535;SDS011;9913;51.168;4.124;2023-04-01T14:52:46;2.97;;;1.10;;
19535;SDS011;9913;51.168;4.124;2023-04-01T14:55:28;1.90;;;1.10;;
19535;SDS011;9913;51.168;4.124;2023-04-01T14:58:11;1.20;;;0.90;;
19535;SDS011;9913;51.168;4.124;2023-04-01T15:00:58;3.23;;;1.23;;
19535;SDS011;9913;51.168;4.124;2023-04-01T15:03:36;3.67;;;1.27;;
19535;SDS011;9913;51.168;4.124;2023-04-01T15:09:20;3.37;;;1.27;;
19535;SDS011;9913;51.168;4.124;2023-04-01T15:11:56;1.90;;;1.17;;
19535;SDS011;9913;51.168;4.124;2023-04-01T15:14:39;3.57;;;1.00;;
19535;SDS011;9913;51.168;4.124;2023-04-01T15:17:37;2.03;;;1.33;;
19535;SDS011;9913;51.168;4.124;2023-04-01T15:20:25;2.73;;;1.00;;
19535;SDS011;9913;51.168;4.124;2023-04-01T15:23:20;2.93;;;1.43;;
19535;SDS011;9913;51.168;4.124;2023-04-01T15:28:56;2.57;;;1.23;;
19535;SDS011;9913;51.168;4.124;2023-04-01T15:31:39;3.13;;;1.27;;
19535;SDS011;9913;51.168;4.124;2023-04-01T15:34:21;2.93;;;1.40;;
19535;SDS011;9913;51.168;4.124;2023-04-01T15:37:00;2.47;;;1.57;;
19535;SDS011;9913;51.168;4.124;2023-04-01T15:39:40;2.77;;;1.10;;
19535;SDS011;9913;51.168;4.124;2023-04-01T15:42:21;3.27;;;1.60;;
19535;SDS011;9913;51.168;4.124;2023-04-01T15:45:02;3.03;;;1.80;;
19535;SDS011;9913;51.168;4.124;2023-04-01T15:47:44;2.60;;;1.50;;
19535;SDS011;9913;51.168;4.124;2023-04-01T15:50:22;6.00;;;2.10;;
19535;SDS011;9913;51.168;4.124;2023-04-01T15:53:08;2.67;;;1.33;;
19535;SDS011;9913;51.168;4.124;2023-04-01T15:55:50;4.23;;;1.97;;
19535;SDS011;9913;51.168;4.124;2023-04-01T15:58:35;3.57;;;1.57;;
19535;SDS011;9913;51.168;4.124;2023-04-01T16:01:16;5.03;;;1.67;;
19535;SDS011;9913;51.168;4.124;2023-04-01T16:03:57;3.90;;;1.50;;
19535;SDS011;9913;51.168;4.124;2023-04-01T16:06:41;2.43;;;1.50;;
19535;SDS011;9913;51.168;4.124;2023-04-01T16:09:23;3.90;;;1.67;;
19535;SDS011;9913;51.168;4.124;2023-04-01T16:12:04;5.03;;;2.07;;
19535;SDS011;9913;51.168;4.124;2023-04-01T16:14:41;2.67;;;1.70;;
19535;SDS011;9913;51.168;4.124;2023-04-01T16:17:24;4.23;;;2.07;;
19535;SDS011;9913;51.168;4.124;2023-04-01T16:19:59;3.47;;;1.70;;
19535;SDS011;9913;51.168;4.124;2023-04-01T16:22:31;3.03;;;1.67;;
19535;SDS011;9913;51.168;4.124;2023-04-01T16:25:14;3.90;;;2.40;;
19535;SDS011;9913;51.168;4.124;2023-04-01T16:27:49;4.37;;;2.47;;
19535;SDS011;9913;51.168;4.124;2023-04-01T16:30:32;2.63;;;1.90;;
19535;SDS011;9913;51.168;4.124;2023-04-01T16:33:05;2.47;;;2.07;;
19535;SDS011;9913;51.168;4.124;2023-04-01T16:35:42;4.43;;;2.70;;
19535;SDS011;9913;51.168;4.124;2023-04-01T16:38:16;5.33;;;3.23;;
19535;SDS011;9913;51.168;4.124;2023-04-01T16:40:53;6.23;;;3.40;;
19535;SDS011;9913;51.168;4.124;2023-04-01T16:43:35;6.20;;;4.00;;
19535;SDS011;9913;51.168;4.124;2023-04-01T16:46:20;5.37;;;3.97;;
19535;SDS011;9913;51.168;4.124;2023-04-01T16:51:54;7.23;;;5.40;;
19535;SDS011;9913;51.168;4.124;2023-04-01T16:54:28;8.03;;;6.03;;
19535;SDS011;9913;51.168;4.124;2023-04-01T16:57:02;11.00;;;7.30;;
19535;SDS011;9913;51.168;4.124;2023-04-01T16:59:34;11.40;;;6.90;;
19535;SDS011;9913;51.168;4.124;2023-04-01T17:02:08;12.67;;;7.07;;
19535;SDS011;9913;51.168;4.124;2023-04-01T17:04:41;14.23;;;7.03;;
19535;SDS011;9913;51.168;4.124;2023-04-01T17:07:16;10.47;;;6.80;;
19535;SDS011;9913;51.168;4.124;2023-04-01T17:09:57;12.37;;;7.47;;
19535;SDS011;9913;51.168;4.124;2023-04-01T17:12:34;16.10;;;7.47;;
19535;SDS011;9913;51.168;4.124;2023-04-01T17:15:12;12.13;;;6.20;;
19535;SDS011;9913;51.168;4.124;2023-04-01T17:17:51;17.77;;;6.90;;
19535;SDS011;9913;51.168;4.124;2023-04-01T17:20:36;18.07;;;7.20;;
19535;SDS011;9913;51.168;4.124;2023-04-01T17:23:14;16.87;;;7.67;;
19535;SDS011;9913;51.168;4.124;2023-04-01T17:25:51;11.77;;;5.87;;
19535;SDS011;9913;51.168;4.124;2023-04-01T17:28:34;11.07;;;5.37;;
19535;SDS011;9913;51.168;4.124;2023-04-01T17:31:14;12.23;;;6.97;;
19535;SDS011;9913;51.168;4.124;2023-04-01T17:33:53;12.60;;;7.83;;